Time;durP1;ratioP1;P1;durP2;ratioP2;P2;SDS_P1;SDS_P2;PMS_P1;PMS_P2;Temp;Humidity;BMP_temperature;BMP_pressure;BME280_temperature;BME280_humidity;BME280_pressure;Samples;Min_cycle;Max_cycle;Signal;HPM_P1;HPM_P2
2021/11/28 09:49:30;;;;;;;7.27;5.27;;;;;;;3.31;100.00;96988.28;5165464;27;20555;-79
2021/11/28 09:52:04;;;;;;;6.30;4.87;;;;;;;3.81;100.00;96967.53;5154207;27;40223;-78
2021/11/28 09:54:34;;;;;;;6.17;4.90;;;;;;;4.47;99.92;96984.06;5166320;27;40857;-77
2021/11/28 09:57:01;;;;;;;7.57;4.60;;;;;;;4.74;95.02;96947.28;5159688;27;41664;-77
2021/11/28 09:59:31;;;;;;;6.03;4.90;;;;;;;5.19;91.71;96972.06;5132881;27;41171;-78
2021/11/28 10:01:59;;;;;;;5.10;4.10;;;;;;;5.50;89.32;96970.72;5148630;27;38879;-77
2021/11/28 10:04:28;;;;;;;5.53;4.47;;;;;;;5.90;87.15;96981.81;5145517;27;42860;-77
2021/11/28 10:06:56;;;;;;;5.20;3.23;;;;;;;6.13;85.49;96976.53;5143801;27;41727;-78
2021/11/28 10:09:24;;;;;;;3.27;2.73;;;;;;;6.41;84.07;96983.19;5165657;27;41138;-77
2021/11/28 10:12:22;;;;;;;3.53;2.90;;;;;;;6.72;82.58;96979.03;5162838;27;39782;-77
2021/11/28 10:14:52;;;;;;;4.13;3.63;;;;;;;6.91;80.38;96981.09;5153001;27;41904;-77
2021/11/28 10:17:23;;;;;;;4.53;2.90;;;;;;;6.99;79.30;96967.34;5130894;27;42552;-78
2021/11/28 10:19:53;;;;;;;4.80;3.53;;;;;;;7.19;77.07;96983.22;5150701;27;42740;-77
2021/11/28 10:22:21;;;;;;;3.13;2.90;;;;;;;7.35;77.10;96980.22;5156856;27;39451;-78
2021/11/28 10:24:51;;;;;;;3.73;3.03;;;;;;;7.44;76.15;96994.44;5151931;27;40740;-77
2021/11/28 10:27:20;;;;;;;4.87;3.67;;;;;;;7.48;75.18;96994.09;5148405;27;42365;-78
2021/11/28 10:29:49;;;;;;;3.87;2.97;;;;;;;7.47;74.85;96979.25;5151361;27;42132;-78
2021/11/28 10:32:16;;;;;;;4.13;3.20;;;;;;;7.55;73.29;96984.72;5148547;27;39805;-80
2021/11/28 10:34:45;;;;;;;4.80;2.90;;;;;;;7.57;73.30;96998.63;5145026;27;41847;-78
2021/11/28 10:37:17;;;;;;;5.40;2.83;;;;;;;7.52;72.55;96977.09;5161909;27;43543;-78
2021/11/28 10:39:46;;;;;;;5.03;2.97;;;;;;;7.64;72.65;96988.44;5154827;27;42339;-80
2021/11/28 10:42:20;;;;;;;2.97;2.67;;;;;;;7.64;72.12;96995.50;5163452;27;39200;-77
2021/11/28 10:45:06;;;;;;;4.33;2.83;;;;;;;7.69;71.41;96978.34;5165257;27;40638;-78
2021/11/28 10:47:40;;;;;;;3.37;3.03;;;;;;;7.80;71.29;96980.13;5148081;27;41832;-77
2021/11/28 10:50:11;;;;;;;4.07;2.50;;;;;;;7.87;70.27;96987.41;5161119;27;42229;-78
2021/11/28 10:52:42;;;;;;;3.97;3.27;;;;;;;7.94;70.29;96983.31;5144825;27;40075;-77
2021/11/28 10:55:33;;;;;;;5.07;3.10;;;;;;;7.98;70.39;96978.63;5153915;27;42324;-77
2021/11/28 10:58:07;;;;;;;3.47;2.60;;;;;;;8.07;69.47;96983.13;5164741;27;42044;-78
2021/11/28 11:00:37;;;;;;;3.23;2.90;;;;;;;8.11;68.89;96979.28;5152610;27;42480;-77
2021/11/28 11:03:15;;;;;;;2.93;2.57;;;;;;;8.19;68.52;96986.56;5145542;27;39311;-78
2021/11/28 11:05:43;;;;;;;3.20;2.90;;;;;;;8.21;69.09;96979.38;5140945;27;41524;-78
2021/11/28 11:08:15;;;;;;;4.13;2.90;;;;;;;8.18;68.79;96980.44;5150652;27;41639;-78
2021/11/28 11:10:44;;;;;;;6.90;2.97;;;;;;;8.14;69.26;96976.41;5149434;27;41448;-78
2021/11/28 11:13:18;;;;;;;2.33;2.07;;;;;;;8.07;69.13;96979.66;5134737;27;38925;-78
2021/11/28 11:15:48;;;;;;;3.30;2.50;;;;;;;8.01;68.70;96978.38;5152421;27;40990;-78
2021/11/28 11:18:18;;;;;;;4.03;3.17;;;;;;;8.01;69.06;96986.28;5133859;27;42830;-79
2021/11/28 11:20:48;;;;;;;3.97;3.10;;;;;;;8.01;69.02;96978.38;5151846;27;41125;-78
2021/11/28 11:23:35;;;;;;;4.07;2.70;;;;;;;8.03;69.87;96973.81;5134032;27;40358;-78
2021/11/28 11:26:17;;;;;;;2.57;2.37;;;;;;;8.08;69.75;96974.25;5151951;27;40392;-78
2021/11/28 11:29:06;;;;;;;3.13;2.43;;;;;;;8.12;69.81;96969.59;5150355;27;43764;-78
2021/11/28 11:31:34;;;;;;;4.83;2.80;;;;;;;8.14;69.71;96970.31;5146244;27;42173;-78
2021/11/28 11:34:02;;;;;;;5.17;2.97;;;;;;;8.08;69.08;96961.09;5139225;27;38889;-79
2021/11/28 11:36:53;;;;;;;4.20;3.50;;;;;;;8.21;68.66;96982.84;5113000;27;41694;-79
2021/11/28 11:39:24;;;;;;;4.20;2.93;;;;;;;8.22;67.96;96976.59;5141438;27;41710;-79
2021/11/28 11:41:52;;;;;;;5.97;3.50;;;;;;;8.23;68.36;96986.19;5149280;27;42082;-78
2021/11/28 11:44:23;;;;;;;4.33;2.83;;;;;;;8.24;68.65;96979.94;5146122;27;38900;-79
2021/11/28 11:46:51;;;;;;;5.33;3.20;;;;;;;8.13;68.46;96972.09;5135250;27;41675;-78
2021/11/28 11:49:19;;;;;;;2.83;2.60;;;;;;;8.19;68.26;96982.13;5133292;27;41651;-77
2021/11/28 11:51:47;;;;;;;4.47;3.27;;;;;;;8.18;68.04;96980.44;5146891;27;41325;-78
2021/11/28 11:54:21;;;;;;;4.40;3.07;;;;;;;8.15;68.16;96991.25;5139835;27;39643;-78
2021/11/28 11:56:57;;;;;;;3.53;2.73;;;;;;;8.09;67.95;96989.13;5136801;27;41611;-77
2021/11/28 11:59:34;;;;;;;2.93;2.63;;;;;;;7.91;68.38;96967.72;5130600;27;41850;-78
2021/11/28 12:02:03;;;;;;;3.73;2.80;;;;;;;7.96;68.56;96980.53;5150200;27;41165;-78
2021/11/28 12:04:45;;;;;;;4.30;3.00;;;;;;;7.96;68.98;96980.53;5136366;27;38949;-77
2021/11/28 12:07:13;;;;;;;3.20;2.43;;;;;;;7.97;69.09;96984.03;5126488;27;41731;-79
2021/11/28 12:09:41;;;;;;;3.27;2.63;;;;;;;7.95;69.13;96976.22;5132246;27;41898;-77
2021/11/28 12:12:13;;;;;;;3.13;2.50;;;;;;;7.96;69.50;96977.06;5142272;27;41720;-78
2021/11/28 12:15:18;;;;;;;4.40;3.00;;;;;;;7.93;69.40;96980.78;5126044;27;40007;-78
2021/11/28 12:17:46;;;;;;;3.97;2.80;;;;;;;7.77;68.80;96957.50;5142911;27;41778;-77
2021/11/28 12:20:15;;;;;;;3.27;2.93;;;;;;;7.87;69.37;96974.25;5150837;27;43020;-78
2021/11/28 12:22:46;;;;;;;5.63;2.63;;;;;;;7.89;69.00;96976.75;5148863;27;42119;-78
2021/11/28 12:25:40;;;;;;;3.97;2.97;;;;;;;7.90;69.17;96971.34;5134045;27;38640;-78
2021/11/28 12:28:32;;;;;;;3.10;2.80;;;;;;;7.89;68.70;96974.97;5131877;27;41577;-80
2021/11/28 12:31:02;;;;;;;4.03;2.97;;;;;;;7.85;69.16;96968.25;5112876;27;42872;-77
2021/11/28 12:34:02;;;;;;;4.53;3.13;;;;;;;7.84;68.70;96976.28;5120169;27;41111;-78
2021/11/28 12:36:42;;;;;;;3.13;2.40;;;;;;;7.76;68.72;96973.44;5149915;27;38861;-79
2021/11/28 12:39:12;;;;;;;3.63;3.23;;;;;;;7.73;68.65;96971.03;5150574;27;41335;-78
2021/11/28 12:42:01;;;;;;;4.67;3.40;;;;;;;7.68;68.66;96970.56;5123570;27;42796;-77
2021/11/28 12:44:31;;;;;;;2.77;2.10;;;;;;;7.51;68.89;96964.03;5140881;27;42255;-78
2021/11/28 12:47:01;;;;;;;7.00;3.40;;;;;;;7.57;68.62;96974.91;5150259;27;40010;-79
2021/11/28 12:49:31;;;;;;;3.27;2.63;;;;;;;7.51;68.93;96970.16;5138159;27;40671;-79
2021/11/28 12:52:37;;;;;;;3.07;2.53;;;;;;;7.47;69.05;96979.25;5131852;27;43586;-78
2021/11/28 12:55:12;;;;;;;2.60;1.87;;;;;;;7.41;69.02;96974.47;5126301;27;42255;-78
2021/11/28 12:57:44;;;;;;;2.87;2.13;;;;;;;7.38;69.12;96985.25;5149494;27;39413;-78
2021/11/28 13:00:18;;;;;;;2.27;2.07;;;;;;;7.34;69.44;96978.53;5128029;27;41237;-78
2021/11/28 13:02:47;;;;;;;5.00;2.83;;;;;;;7.31;69.17;96980.56;5120644;27;41825;-78
2021/11/28 13:05:35;;;;;;;2.83;2.23;;;;;;;7.28;69.25;96970.31;5140391;27;41278;-78
2021/11/28 13:08:35;;;;;;;3.17;2.50;;;;;;;7.26;69.38;96975.69;5129784;27;40062;-79
2021/11/28 13:11:14;;;;;;;3.30;2.20;;;;;;;7.22;69.12;96969.81;5133015;27;40934;-78
2021/11/28 13:13:45;;;;;;;2.73;2.33;;;;;;;7.13;69.34;96959.19;5120018;27;41574;-79
2021/11/28 13:16:17;;;;;;;2.83;1.93;;;;;;;7.23;69.71;96981.19;5146873;27;40649;-78
2021/11/28 13:18:48;;;;;;;2.77;1.90;;;;;;;7.22;69.50;96980.34;5149722;27;38971;-78
2021/11/28 13:21:26;;;;;;;4.47;2.93;;;;;;;7.21;69.51;96977.84;5151094;27;42780;-78
2021/11/28 13:24:13;;;;;;;3.17;2.57;;;;;;;7.15;69.50;96963.38;5151071;27;43688;-79
2021/11/28 13:26:54;;;;;;;4.03;2.43;;;;;;;7.19;69.25;96974.50;5149562;27;42894;-77
2021/11/28 13:29:22;;;;;;;4.03;2.50;;;;;;;7.18;69.29;96973.66;5141429;27;41320;-78
2021/11/28 13:31:55;;;;;;;3.57;2.30;;;;;;;7.15;69.32;96973.91;5143308;27;40770;-78
2021/11/28 13:34:30;;;;;;;2.53;2.23;;;;;;;7.10;69.41;96972.59;5148391;27;43782;-78
2021/11/28 13:36:58;;;;;;;2.23;1.97;;;;;;;7.11;69.22;96982.16;5133041;27;41853;-78
2021/11/28 13:39:27;;;;;;;4.43;2.70;;;;;;;7.08;68.82;96979.75;5131845;27;40022;-78
2021/11/28 13:41:56;;;;;;;2.43;2.20;;;;;;;7.02;69.05;96975.00;5140965;27;40908;-79
2021/11/28 13:44:25;;;;;;;2.77;2.50;;;;;;;6.95;68.91;96971.97;5151030;27;42476;-78
2021/11/28 13:46:56;;;;;;;3.03;2.00;;;;;;;6.97;69.17;96985.03;5149797;27;42333;-78
2021/11/28 13:49:25;;;;;;;4.43;3.10;;;;;;;6.84;69.42;96966.72;5148953;27;38380;-78
2021/11/28 13:51:55;;;;;;;2.93;2.10;;;;;;;6.90;69.12;96981.22;5128883;27;42537;-78
2021/11/28 13:54:30;;;;;;;2.13;1.73;;;;;;;6.87;68.92;96984.06;5146044;27;43154;-77
2021/11/28 13:56:59;;;;;;;2.60;2.20;;;;;;;6.81;69.06;96980.09;5118283;27;40833;-77
2021/11/28 13:59:28;;;;;;;2.20;1.70;;;;;;;6.78;69.31;96981.22;5131303;27;40884;-78
2021/11/28 14:02:21;;;;;;;5.30;2.57;;;;;;;6.77;69.21;96979.53;5132014;27;40796;-78
2021/11/28 14:04:52;;;;;;;2.57;2.20;;;;;;;6.77;69.36;96984.78;5143269;27;42836;-78
2021/11/28 14:07:21;;;;;;;2.03;1.80;;;;;;;6.73;68.99;96987.75;5133713;27;42871;-78
2021/11/28 14:09:50;;;;;;;2.93;2.27;;;;;;;6.69;69.33;96987.16;5133854;27;39892;-78
2021/11/28 14:12:20;;;;;;;2.17;1.90;;;;;;;6.67;69.62;96988.25;5128412;27;41203;-80
2021/11/28 14:14:57;;;;;;;3.37;2.13;;;;;;;6.66;69.74;96987.41;5129446;27;42733;-78
2021/11/28 14:17:27;;;;;;;2.13;1.93;;;;;;;6.56;69.88;96968.00;5129298;27;41147;-77
2021/11/28 14:19:56;;;;;;;4.27;2.30;;;;;;;6.61;69.71;96986.91;5144572;27;40301;-78
2021/11/28 14:22:33;;;;;;;4.03;1.97;;;;;;;6.57;69.68;96993.34;5147376;27;42948;-78
2021/11/28 14:25:19;;;;;;;4.53;2.40;;;;;;;6.53;69.73;96980.56;5149395;27;42773;-78
2021/11/28 14:28:14;;;;;;;2.87;1.73;;;;;;;6.48;69.78;96989.63;5148493;27;42872;-78
2021/11/28 14:30:44;;;;;;;3.83;2.77;;;;;;;6.43;69.89;96996.19;5147669;27;38980;-78
2021/11/28 14:33:15;;;;;;;3.10;2.60;;;;;;;6.39;70.00;97000.00;5148932;27;41762;-77
2021/11/28 14:35:47;;;;;;;3.67;2.23;;;;;;;6.35;69.98;96993.31;5147571;27;42805;-77
2021/11/28 14:38:18;;;;;;;3.17;2.23;;;;;;;6.20;70.02;96983.94;5144204;27;41893;-78
2021/11/28 14:40:53;;;;;;;1.70;1.43;;;;;;;6.29;69.90;96999.03;5143410;27;39154;-77
2021/11/28 14:43:21;;;;;;;3.00;2.00;;;;;;;6.19;69.80;96987.50;5126201;27;41112;-79
2021/11/28 14:46:01;;;;;;;3.50;2.03;;;;;;;6.19;70.01;96990.97;5153456;27;43702;-78
2021/11/28 14:48:31;;;;;;;2.33;1.87;;;;;;;6.18;69.99;97001.63;5132310;27;41092;-78
2021/11/28 14:50:59;;;;;;;3.40;1.70;;;;;;;6.05;70.27;96997.28;5128612;27;39086;-78
2021/11/28 14:53:27;;;;;;;4.57;1.83;;;;;;;6.08;70.53;97006.69;5149840;27;42783;-78
2021/11/28 14:55:57;;;;;;;1.80;1.70;;;;;;;6.04;70.44;97003.50;5152420;27;43512;-78
2021/11/28 14:58:37;;;;;;;4.63;1.80;;;;;;;6.00;70.59;97004.66;5148086;27;42188;-78
2021/11/28 15:01:14;;;;;;;2.30;1.80;;;;;;;5.96;70.31;97005.81;5144084;27;39243;-78
2021/11/28 15:04:12;;;;;;;2.17;1.83;;;;;;;5.92;70.83;97001.75;5131255;27;41654;-78
2021/11/28 15:06:55;;;;;;;4.20;1.80;;;;;;;5.72;70.87;96983.94;5154190;27;43054;-78
2021/11/28 15:09:24;;;;;;;3.23;1.63;;;;;;;5.81;70.80;97006.91;5125208;27;41368;-78
2021/11/28 15:11:51;;;;;;;2.57;1.57;;;;;;;5.62;70.98;96982.94;5158867;27;40941;-78
2021/11/28 15:14:20;;;;;;;2.90;1.83;;;;;;;5.74;71.12;97008.31;5150456;27;42308;-78
2021/11/28 15:16:48;;;;;;;1.50;1.40;;;;;;;5.72;71.10;97015.47;5161706;27;43157;-78
2021/11/28 15:19:18;;;;;;;1.90;1.43;;;;;;;5.66;71.40;97006.25;5137320;27;41048;-80
2021/11/28 15:21:46;;;;;;;1.70;1.60;;;;;;;5.65;71.17;97017.69;5150966;27;40153;-77
2021/11/28 15:24:13;;;;;;;2.17;1.67;;;;;;;5.62;71.25;97010.03;5148371;27;42064;-78
2021/11/28 15:26:41;;;;;;;2.47;1.67;;;;;;;5.59;71.43;97019.91;5116430;27;41779;-79
2021/11/28 15:29:09;;;;;;;2.70;1.60;;;;;;;5.42;71.57;96989.63;5134463;27;42162;-78
